createdAt,value
2016-05-27T00:00:25.668Z,13.91
2016-05-27T00:01:25.623Z,13.96
2016-05-27T00:02:25.595Z,13.88
2016-05-27T00:03:25.598Z,13.94
2016-05-27T00:04:25.742Z,13.81
2016-05-27T00:05:25.400Z,13.89
2016-05-27T00:06:25.512Z,13.94
2016-05-27T00:07:25.500Z,13.8
2016-05-27T00:08:25.471Z,13.84
2016-05-27T00:09:25.286Z,13.84
2016-05-27T00:10:25.430Z,13.81
2016-05-27T00:11:25.275Z,13.81
2016-05-27T00:12:25.388Z,13.83
2016-05-27T00:13:25.359Z,13.83
2016-05-27T00:14:25.347Z,13.81
2016-05-27T00:15:25.318Z,13.76
2016-05-27T00:16:25.304Z,13.76
2016-05-27T00:17:25.276Z,13.74
2016-05-27T00:18:25.826Z,13.69
2016-05-27T00:19:25.485Z,13.7
2016-05-27T00:20:25.050Z,13.67
2016-05-27T00:21:24.881Z,13.69
2016-05-27T00:22:25.164Z,13.69
2016-05-27T00:23:24.979Z,13.69
2016-05-27T00:24:24.968Z,13.67
2016-05-27T00:25:25.095Z,13.62
2016-05-27T00:26:25.082Z,13.58
2016-05-27T00:27:25.068Z,13.55
2016-05-27T00:28:25.040Z,13.56
2016-05-27T00:29:25.011Z,13.55
2016-05-27T00:30:24.998Z,13.54
2016-05-27T00:31:24.970Z,13.56
2016-05-27T00:32:24.957Z,13.54
2016-05-27T00:33:24.928Z,13.63
2016-05-27T00:34:25.197Z,13.55
2016-05-27T00:35:24.730Z,13.56
2016-05-27T00:36:24.858Z,13.52
2016-05-27T00:37:24.830Z,13.51
2016-05-27T00:38:24.802Z,13.43
2016-05-27T00:39:24.788Z,13.41
2016-05-27T00:40:24.760Z,13.4
2016-05-27T00:41:24.591Z,13.43
2016-05-27T00:42:24.718Z,13.46
2016-05-27T00:43:24.690Z,13.46
2016-05-27T00:44:24.677Z,13.41
2016-05-27T00:45:24.680Z,13.37
2016-05-27T00:46:24.635Z,13.33
2016-05-27T00:47:24.607Z,13.44
2016-05-27T00:48:24.437Z,13.33
2016-05-27T00:49:24.425Z,13.37
2016-05-27T00:50:24.537Z,13.33
2016-05-27T00:51:24.368Z,13.27
2016-05-27T00:52:24.510Z,13.24
2016-05-27T00:53:24.482Z,13.3
2016-05-27T00:54:24.454Z,13.27
2016-05-27T00:55:24.440Z,13.25
2016-05-27T00:56:24.412Z,13.18
2016-05-27T00:57:24.384Z,13.21
2016-05-27T00:58:24.214Z,13.27
2016-05-27T00:59:24.359Z,13.2
2016-05-27T01:00:24.314Z,13.17
2016-05-27T01:01:24.300Z,13.2
2016-05-27T01:02:24.273Z,13.22
2016-05-27T01:03:24.259Z,13.21
2016-05-27T01:04:24.778Z,13.2
2016-05-27T01:05:24.217Z,13.18
2016-05-27T01:06:24.189Z,13.15
2016-05-27T01:07:24.005Z,13.14
2016-05-27T01:08:24.132Z,13.15
2016-05-27T01:09:24.119Z,13.2
2016-05-27T01:10:24.090Z,13.12
2016-05-27T01:11:24.061Z,13.17
2016-05-27T01:12:24.049Z,13.21
2016-05-27T01:13:24.021Z,13.18
2016-05-27T01:14:24.008Z,13.2
2016-05-27T01:15:23.994Z,13.2
2016-05-27T01:16:23.966Z,13.24
2016-05-27T01:17:23.938Z,13.21
2016-05-27T01:18:24.160Z,13.3
2016-05-27T01:19:23.896Z,13.22
2016-05-27T01:20:23.868Z,13.21
2016-05-27T01:21:23.542Z,13.24
2016-05-27T01:22:23.842Z,13.33
2016-05-27T01:23:23.812Z,13.24
2016-05-27T01:24:23.784Z,13.3
2016-05-27T01:25:23.756Z,13.37
2016-05-27T01:26:23.743Z,13.3
2016-05-27T01:27:23.715Z,13.29
2016-05-27T01:28:23.530Z,13.37
2016-05-27T01:29:23.673Z,13.29
2016-05-27T01:30:23.645Z,13.36
2016-05-27T01:31:23.615Z,13.36
2016-05-27T01:32:23.618Z,13.3
2016-05-27T01:33:23.575Z,13.33
2016-05-27T01:34:23.984Z,13.3
2016-05-27T01:35:23.548Z,13.3
2016-05-27T01:36:23.519Z,13.32
2016-05-27T01:37:23.492Z,13.36
2016-05-27T01:38:23.322Z,13.3
2016-05-27T01:39:23.434Z,13.33
2016-05-27T01:40:23.421Z,13.33
2016-05-27T01:41:23.408Z,13.3
2016-05-27T01:42:23.380Z,13.33
2016-05-27T01:43:23.352Z,13.36
2016-05-27T01:44:23.182Z,13.29
2016-05-27T01:45:23.310Z,13.33
2016-05-27T01:46:23.141Z,13.24
2016-05-27T01:47:23.268Z,13.25
2016-05-27T01:48:23.599Z,13.33
2016-05-27T01:49:23.088Z,13.25
2016-05-27T01:50:23.220Z,13.29
2016-05-27T01:51:23.226Z,13.24
2016-05-27T01:52:23.217Z,13.17
2016-05-27T01:53:23.208Z,13.12
2016-05-27T01:54:23.212Z,13.22
2016-05-27T01:55:23.191Z,13.17
2016-05-27T01:56:23.168Z,13.21
2016-05-27T01:57:23.163Z,13.14
2016-05-27T01:58:23.142Z,13.15
2016-05-27T01:59:23.134Z,13.17
2016-05-27T02:00:23.109Z,13.14
2016-05-27T02:01:22.943Z,13.03
2016-05-27T02:02:23.072Z,13.14
2016-05-27T02:03:22.890Z,13.03
2016-05-27T02:04:22.739Z,13.03
2016-05-27T02:05:23.023Z,13.07
2016-05-27T02:06:22.996Z,13.06
2016-05-27T02:07:22.813Z,13.04
2016-05-27T02:08:22.942Z,13.07
2016-05-27T02:09:22.912Z,13.03
2016-05-27T02:10:22.885Z,13.02
2016-05-27T02:11:22.871Z,13.04
2016-05-27T02:12:22.860Z,13.02
2016-05-27T02:13:22.832Z,13.12
2016-05-27T02:14:22.802Z,13.02
2016-05-27T02:15:22.790Z,13.02
2016-05-27T02:16:22.761Z,13.04
2016-05-27T02:17:22.733Z,12.99
2016-05-27T02:18:22.799Z,12.89
2016-05-27T02:19:22.708Z,12.87
2016-05-27T02:20:22.679Z,12.87
2016-05-27T02:21:22.649Z,12.89
2016-05-27T02:22:22.481Z,12.88
2016-05-27T02:23:22.609Z,12.95
2016-05-27T02:24:22.580Z,12.84
2016-05-27T02:25:22.395Z,12.82
2016-05-27T02:26:22.538Z,12.93
2016-05-27T02:27:22.525Z,12.88
2016-05-27T02:28:22.497Z,12.79
2016-05-27T02:29:22.468Z,12.77
2016-05-27T02:30:22.456Z,12.78
2016-05-27T02:31:22.426Z,12.84
2016-05-27T02:32:22.258Z,12.79
2016-05-27T02:33:22.228Z,12.74
2016-05-27T02:34:22.373Z,12.7
2016-05-27T02:35:22.187Z,12.7
2016-05-27T02:36:22.159Z,12.71
2016-05-27T02:37:22.130Z,12.74
2016-05-27T02:38:22.103Z,12.64
2016-05-27T02:39:22.245Z,12.7
2016-05-27T02:40:22.060Z,12.74
2016-05-27T02:41:22.203Z,12.66
2016-05-27T02:42:22.175Z,12.69
2016-05-27T02:43:22.147Z,12.77
2016-05-27T02:44:22.134Z,12.64
2016-05-27T02:45:22.105Z,12.69
2016-05-27T02:46:22.091Z,12.77
2016-05-27T02:47:22.063Z,12.64
2016-05-27T02:48:22.051Z,12.6
2016-05-27T02:49:22.491Z,12.62
2016-05-27T02:50:21.994Z,12.7
2016-05-27T02:51:21.980Z,12.59
2016-05-27T02:52:21.952Z,12.67
2016-05-27T02:53:21.783Z,12.59
2016-05-27T02:54:21.895Z,12.59
2016-05-27T02:55:21.882Z,12.69
2016-05-27T02:56:21.713Z,12.67
2016-05-27T02:57:21.840Z,12.64
2016-05-27T02:58:21.812Z,12.66
2016-05-27T02:59:21.643Z,12.71
2016-05-27T03:00:21.787Z,12.74
2016-05-27T03:01:21.743Z,12.74
2016-05-27T03:02:21.729Z,12.71
2016-05-27T03:03:21.701Z,12.79
2016-05-27T03:04:21.687Z,12.81
2016-05-27T03:05:21.487Z,12.84
2016-05-27T03:06:21.631Z,12.81
2016-05-27T03:07:21.603Z,12.85
2016-05-27T03:08:21.589Z,12.96
2016-05-27T03:09:21.576Z,12.82
2016-05-27T03:10:21.548Z,12.87
2016-05-27T03:11:21.363Z,12.88
2016-05-27T03:12:21.491Z,13.03
2016-05-27T03:13:21.493Z,12.97
2016-05-27T03:14:21.450Z,12.99
2016-05-27T03:15:21.420Z,13.03
2016-05-27T03:16:21.408Z,13.07
2016-05-27T03:17:21.379Z,13.03
2016-05-27T03:18:21.210Z,13.09
2016-05-27T03:19:21.338Z,13.17
2016-05-27T03:20:21.325Z,13.14
2016-05-27T03:21:21.311Z,13.17
2016-05-27T03:22:21.111Z,13.18
2016-05-27T03:23:20.942Z,13.25
2016-05-27T03:24:21.226Z,13.3
2016-05-27T03:25:21.197Z,13.27
2016-05-27T03:26:21.184Z,13.3
2016-05-27T03:27:21.156Z,13.38
2016-05-27T03:28:20.987Z,13.27
2016-05-27T03:29:21.115Z,13.41
2016-05-27T03:30:21.101Z,13.41
2016-05-27T03:31:21.073Z,13.49
2016-05-27T03:32:21.045Z,13.51
2016-05-27T03:33:20.859Z,13.54
2016-05-27T03:34:20.846Z,13.46
2016-05-27T03:35:20.974Z,13.47
2016-05-27T03:36:20.945Z,13.54
2016-05-27T03:37:20.933Z,13.55
2016-05-27T03:38:20.904Z,13.54
2016-05-27T03:39:20.734Z,13.51
2016-05-27T03:40:20.862Z,13.56
2016-05-27T03:41:20.834Z,13.52
2016-05-27T03:42:20.822Z,13.56
2016-05-27T03:43:20.636Z,13.61
2016-05-27T03:44:20.780Z,13.61
2016-05-27T03:45:20.595Z,13.59
2016-05-27T03:46:20.738Z,13.65
2016-05-27T03:47:20.710Z,13.69
2016-05-27T03:48:20.697Z,13.62
2016-05-27T03:49:20.683Z,13.69
2016-05-27T03:50:20.639Z,13.69
2016-05-27T03:51:20.611Z,13.67
2016-05-27T03:52:20.613Z,13.63
2016-05-27T03:53:20.569Z,13.62
2016-05-27T03:54:20.541Z,13.67
2016-05-27T03:55:20.527Z,13.74
2016-05-27T03:56:20.515Z,13.61
2016-05-27T03:57:20.487Z,13.69
2016-05-27T03:58:20.473Z,13.73
2016-05-27T03:59:20.445Z,13.65
2016-05-27T04:00:20.416Z,13.63
2016-05-27T04:01:20.403Z,13.71
2016-05-27T04:02:20.375Z,13.76
2016-05-27T04:03:20.362Z,13.71
2016-05-27T04:04:20.802Z,13.63
2016-05-27T04:05:20.320Z,13.69
2016-05-27T04:06:20.167Z,13.67
2016-05-27T04:07:20.264Z,13.77
2016-05-27T04:08:20.234Z,13.7
2016-05-27T04:09:20.222Z,13.69
2016-05-27T04:10:20.037Z,13.7
2016-05-27T04:11:20.181Z,13.79
2016-05-27T04:12:20.167Z,13.79
2016-05-27T04:13:20.139Z,13.74
2016-05-27T04:14:20.110Z,13.83
2016-05-27T04:15:20.097Z,13.81
2016-05-27T04:16:19.913Z,13.76
2016-05-27T04:17:20.041Z,13.83
2016-05-27T04:18:19.855Z,13.77
2016-05-27T04:19:20.655Z,13.67
2016-05-27T04:20:19.970Z,13.77
2016-05-27T04:21:19.957Z,13.77
2016-05-27T04:22:19.929Z,13.79
2016-05-27T04:23:19.932Z,13.74
2016-05-27T04:24:19.730Z,13.8
2016-05-27T04:25:19.875Z,13.79
2016-05-27T04:26:19.830Z,13.79
2016-05-27T04:27:19.817Z,13.81
2016-05-27T04:28:19.648Z,13.8
2016-05-27T04:29:19.776Z,13.83
2016-05-27T04:30:19.746Z,13.79
2016-05-27T04:31:19.734Z,13.8
2016-05-27T04:32:19.706Z,13.95
2016-05-27T04:33:19.676Z,13.89
2016-05-27T04:34:20.445Z,13.88
2016-05-27T04:35:19.635Z,13.94
2016-05-27T04:36:19.622Z,13.95
2016-05-27T04:37:19.594Z,13.91
2016-05-27T04:38:19.581Z,14.02
2016-05-27T04:39:19.553Z,13.98
2016-05-27T04:40:19.523Z,13.96
2016-05-27T04:41:19.511Z,14.01
2016-05-27T04:42:19.483Z,13.99
2016-05-27T04:43:19.314Z,13.95
2016-05-27T04:44:19.300Z,13.98
2016-05-27T04:45:19.428Z,13.95
2016-05-27T04:46:19.415Z,14.06
2016-05-27T04:47:19.371Z,14.09
2016-05-27T04:48:19.358Z,14.06
2016-05-27T04:49:19.329Z,14.13
2016-05-27T04:50:19.316Z,14.02
2016-05-27T04:51:19.288Z,14.17
2016-05-27T04:52:19.103Z,14.21
2016-05-27T04:53:19.246Z,14.12
2016-05-27T04:54:19.218Z,14.1
2016-05-27T04:55:19.205Z,14.25
2016-05-27T04:56:19.176Z,14.19
2016-05-27T04:57:19.179Z,14.19
2016-05-27T04:58:18.979Z,14.31
2016-05-27T04:59:19.122Z,14.21
2016-05-27T05:00:19.093Z,14.29
2016-05-27T05:01:19.080Z,14.31
2016-05-27T05:02:18.895Z,14.42
2016-05-27T05:03:19.023Z,14.42
2016-05-27T05:04:19.010Z,14.38
2016-05-27T05:05:18.981Z,14.52
2016-05-27T05:06:18.968Z,14.43
2016-05-27T05:07:18.940Z,14.44
2016-05-27T05:08:18.912Z,14.54
2016-05-27T05:09:18.898Z,14.53
2016-05-27T05:10:18.870Z,14.67
2016-05-27T05:11:18.701Z,14.65
2016-05-27T05:12:18.829Z,14.62
2016-05-27T05:13:18.817Z,14.71
2016-05-27T05:14:18.803Z,14.71
2016-05-27T05:15:18.618Z,14.68
2016-05-27T05:16:18.589Z,14.8
2016-05-27T05:17:18.420Z,14.75
2016-05-27T05:18:18.705Z,14.84
2016-05-27T05:19:18.691Z,14.84
2016-05-27T05:20:18.506Z,14.93
2016-05-27T05:21:18.633Z,14.91
2016-05-27T05:22:18.621Z,14.91
2016-05-27T05:23:18.593Z,14.93
2016-05-27T05:24:18.580Z,14.98
2016-05-27T05:25:18.551Z,15.01
2016-05-27T05:26:18.554Z,15.02
2016-05-27T05:27:18.525Z,15.09
2016-05-27T05:28:18.482Z,15.15
2016-05-27T05:29:18.469Z,15.15
2016-05-27T05:30:18.454Z,15.24
2016-05-27T05:31:18.427Z,15.27
2016-05-27T05:32:18.258Z,15.38
2016-05-27T05:33:18.401Z,15.27
2016-05-27T05:34:18.435Z,15.31
2016-05-27T05:35:18.344Z,15.45
2016-05-27T05:36:18.315Z,15.42
2016-05-27T05:37:18.318Z,15.49
2016-05-27T05:38:18.290Z,15.38
2016-05-27T05:39:18.261Z,15.52
2016-05-27T05:40:18.092Z,15.57
2016-05-27T05:41:18.219Z,15.52
2016-05-27T05:42:18.207Z,15.57
2016-05-27T05:43:18.178Z,15.61
2016-05-27T05:44:18.164Z,15.66
2016-05-27T05:45:18.136Z,15.72
2016-05-27T05:46:18.123Z,15.75
2016-05-27T05:47:18.094Z,15.78
2016-05-27T05:48:18.081Z,15.76
2016-05-27T05:49:17.928Z,15.78
2016-05-27T05:50:17.900Z,15.72
2016-05-27T05:51:18.027Z,15.7
2016-05-27T05:52:17.999Z,15.7
2016-05-27T05:53:17.969Z,15.72
2016-05-27T05:54:17.817Z,15.67
2016-05-27T05:55:17.772Z,15.78
2016-05-27T05:56:17.932Z,15.88
2016-05-27T05:57:17.887Z,15.84
2016-05-27T05:58:17.890Z,15.96
2016-05-27T05:59:17.705Z,15.86
2016-05-27T06:00:17.833Z,15.93
2016-05-27T06:01:17.821Z,16.03
2016-05-27T06:02:17.791Z,16.03
2016-05-27T06:03:17.794Z,15.99
2016-05-27T06:04:17.609Z,15.99
2016-05-27T06:05:19.987Z,16.03
2016-05-27T06:06:17.709Z,16.07
2016-05-27T06:07:17.696Z,16.16
2016-05-27T06:08:17.667Z,16.18
2016-05-27T06:09:17.498Z,16.15
2016-05-27T06:10:17.485Z,16.06
2016-05-27T06:11:17.612Z,16.15
2016-05-27T06:12:17.583Z,16.2
2016-05-27T06:13:17.571Z,16.11
2016-05-27T06:14:17.558Z,16.22
2016-05-27T06:15:17.529Z,16.12
2016-05-27T06:16:17.516Z,16.04
2016-05-27T06:17:17.489Z,16.11
2016-05-27T06:18:17.475Z,16.15
2016-05-27T06:19:17.727Z,16.16
2016-05-27T06:20:17.418Z,16.12
2016-05-27T06:21:17.405Z,16.03
2016-05-27T06:22:17.392Z,15.97
2016-05-27T06:23:17.379Z,16.03
2016-05-27T06:24:17.350Z,15.97
2016-05-27T06:25:17.338Z,16.09
2016-05-27T06:26:17.308Z,16.18
2016-05-27T06:27:17.280Z,16.15
2016-05-27T06:28:17.268Z,16.18
2016-05-27T06:29:17.239Z,16.14
2016-05-27T06:30:17.226Z,16.14
2016-05-27T06:31:17.213Z,16.23
2016-05-27T06:32:17.200Z,16.31
2016-05-27T06:33:17.171Z,16.23
2016-05-27T06:34:17.471Z,16.34
2016-05-27T06:35:16.818Z,16.27
2016-05-27T06:36:17.117Z,16.3
2016-05-27T06:37:17.073Z,16.33
2016-05-27T06:38:17.060Z,16.35
2016-05-27T06:39:17.047Z,16.31
2016-05-27T06:40:17.035Z,16.3
2016-05-27T06:41:17.021Z,16.25
2016-05-27T06:42:16.976Z,16.31
2016-05-27T06:43:16.980Z,16.3
2016-05-27T06:44:16.936Z,16.31
2016-05-27T06:45:16.922Z,16.3
2016-05-27T06:46:16.925Z,16.27
2016-05-27T06:47:16.881Z,16.49
2016-05-27T06:48:16.868Z,16.38
2016-05-27T06:49:16.855Z,16.4
2016-05-27T06:50:16.827Z,16.45
2016-05-27T06:51:16.845Z,16.6
2016-05-27T06:52:16.785Z,16.62
2016-05-27T06:53:16.756Z,16.65
2016-05-27T06:54:19.838Z,16.73
2016-05-27T06:55:16.715Z,16.8
2016-05-27T06:56:16.719Z,16.9
2016-05-27T06:57:16.689Z,16.99
2016-05-27T06:58:16.661Z,17.08
2016-05-27T06:59:16.647Z,17.08
2016-05-27T07:00:16.618Z,17.14
2016-05-27T07:01:16.607Z,17.26
2016-05-27T07:02:16.594Z,17.41
2016-05-27T07:03:16.580Z,17.33
2016-05-27T07:04:16.395Z,17.35
2016-05-27T07:05:16.524Z,17.53
2016-05-27T07:06:16.510Z,17.67
2016-05-27T07:07:16.497Z,17.71
2016-05-27T07:08:16.469Z,17.66
2016-05-27T07:09:16.471Z,17.7
2016-05-27T07:10:16.427Z,17.87
2016-05-27T07:11:16.414Z,17.95
2016-05-27T07:12:16.401Z,18.06
2016-05-27T07:13:16.373Z,18.19
2016-05-27T07:14:16.359Z,18.27
2016-05-27T07:15:16.347Z,18.36
2016-05-27T07:16:16.318Z,18.54
2016-05-27T07:17:16.149Z,18.5
2016-05-27T07:18:16.137Z,18.68
2016-05-27T07:19:16.280Z,18.74
2016-05-27T07:20:16.236Z,18.87
2016-05-27T07:21:16.066Z,19.15
2016-05-27T07:22:16.054Z,19.18
2016-05-27T07:23:16.212Z,19.25
2016-05-27T07:24:16.183Z,19.48
2016-05-27T07:25:16.171Z,19.53
2016-05-27T07:26:15.986Z,19.6
2016-05-27T07:27:16.114Z,19.75
2016-05-27T07:28:16.116Z,19.79
2016-05-27T07:29:16.088Z,19.94
2016-05-27T07:30:16.091Z,19.95
2016-05-27T07:31:16.047Z,20.09
2016-05-27T07:32:16.033Z,20.25
2016-05-27T07:33:16.020Z,20.41
2016-05-27T07:34:17.821Z,20.61
2016-05-27T07:35:15.823Z,20.77
2016-05-27T07:36:15.826Z,20.89
2016-05-27T07:37:15.954Z,21.16
2016-05-27T07:38:15.940Z,21.39
2016-05-27T07:39:15.942Z,21.42
2016-05-27T07:40:15.899Z,21.59
2016-05-27T07:41:15.885Z,21.71
2016-05-27T07:42:15.888Z,21.66
2016-05-27T07:43:15.844Z,21.72
2016-05-27T07:44:15.848Z,21.78
2016-05-27T07:45:15.833Z,21.67
2016-05-27T07:46:15.649Z,21.57
2016-05-27T07:47:15.793Z,21.78
2016-05-27T07:48:15.779Z,21.76
2016-05-27T07:49:19.172Z,22.04
2016-05-27T07:50:15.801Z,22.1
2016-05-27T07:51:15.725Z,22.34
2016-05-27T07:52:15.727Z,22.34
2016-05-27T07:53:15.699Z,22.14
2016-05-27T07:54:15.686Z,22.17
2016-05-27T07:55:15.672Z,22.29
2016-05-27T07:56:15.660Z,22.29
2016-05-27T07:57:15.647Z,22.39
2016-05-27T07:58:15.619Z,22.39
2016-05-27T07:59:15.637Z,22.5
2016-05-27T08:00:15.609Z,22.52
2016-05-27T08:01:15.424Z,22.5
2016-05-27T08:02:15.566Z,22.53
2016-05-27T08:03:15.554Z,22.56
2016-05-27T08:04:16.072Z,22.5
2016-05-27T08:05:15.529Z,22.43
2016-05-27T08:06:15.515Z,22.56
2016-05-27T08:07:15.502Z,22.53
2016-05-27T08:08:15.473Z,22.56
2016-05-27T08:09:15.477Z,22.64
2016-05-27T08:10:15.292Z,22.71
2016-05-27T08:11:15.451Z,22.72
2016-05-27T08:12:15.422Z,22.77
2016-05-27T08:13:15.410Z,22.83
2016-05-27T08:14:15.396Z,22.9
2016-05-27T08:15:15.384Z,22.9
2016-05-27T08:16:15.354Z,22.92
2016-05-27T08:17:15.357Z,22.93
2016-05-27T08:18:15.329Z,22.99
2016-05-27T08:19:15.300Z,22.9
2016-05-27T08:20:15.678Z,22.87
2016-05-27T08:21:15.290Z,22.8
2016-05-27T08:22:15.152Z,22.72
2016-05-27T08:23:15.265Z,22.57
2016-05-27T08:24:15.111Z,22.53
2016-05-27T08:25:15.238Z,22.56
2016-05-27T08:26:15.225Z,22.56
2016-05-27T08:27:15.197Z,22.52
2016-05-27T08:28:15.184Z,22.59
2016-05-27T08:29:15.014Z,22.62
2016-05-27T08:30:15.158Z,22.59
2016-05-27T08:31:15.145Z,22.62
2016-05-27T08:32:15.132Z,22.67
2016-05-27T08:33:15.119Z,22.57
2016-05-27T08:34:15.122Z,22.53
2016-05-27T08:35:15.891Z,22.5
2016-05-27T08:36:15.065Z,22.52
2016-05-27T08:37:15.052Z,22.52
2016-05-27T08:38:14.882Z,22.44
2016-05-27T08:39:15.010Z,22.39
2016-05-27T08:40:15.013Z,22.37
2016-05-27T08:41:15.001Z,22.43
2016-05-27T08:42:14.987Z,22.32
2016-05-27T08:43:14.959Z,22.27
2016-05-27T08:44:14.946Z,22.13
2016-05-27T08:45:14.932Z,22.09
2016-05-27T08:46:14.764Z,22.02
2016-05-27T08:47:14.907Z,22.06
2016-05-27T08:48:14.894Z,22.01
2016-05-27T08:49:15.225Z,21.92
2016-05-27T08:50:14.868Z,21.79
2016-05-27T08:51:14.684Z,21.81
2016-05-27T08:52:14.827Z,21.82
2016-05-27T08:53:14.814Z,21.64
2016-05-27T08:54:14.801Z,21.38
2016-05-27T08:55:14.788Z,21.16
2016-05-27T08:56:14.775Z,20.86
2016-05-27T08:57:14.762Z,20.81
2016-05-27T08:58:14.733Z,20.96
2016-05-27T08:59:14.720Z,21.04
2016-05-27T09:00:14.691Z,21.06
2016-05-27T09:01:14.695Z,21.04
2016-05-27T09:02:14.666Z,21.17
2016-05-27T09:03:14.653Z,21.13
2016-05-27T09:04:14.500Z,21.19
2016-05-27T09:05:14.971Z,21.17
2016-05-27T09:06:14.599Z,21.02
2016-05-27T09:07:14.586Z,20.96
2016-05-27T09:08:14.557Z,20.98
2016-05-27T09:09:14.544Z,21.04
2016-05-27T09:10:14.547Z,20.99
2016-05-27T09:11:14.534Z,20.99
2016-05-27T09:12:14.380Z,20.99
2016-05-27T09:13:14.492Z,20.98
2016-05-27T09:14:17.855Z,20.91
2016-05-27T09:15:14.467Z,20.87
2016-05-27T09:16:14.435Z,20.86
2016-05-27T09:17:14.422Z,20.81
2016-05-27T09:18:14.409Z,20.81
2016-05-27T09:19:14.507Z,20.81
2016-05-27T09:20:14.337Z,20.81
2016-05-27T09:21:14.370Z,20.9
2016-05-27T09:22:14.358Z,20.86
2016-05-27T09:23:14.328Z,20.93
2016-05-27T09:24:14.317Z,20.83
2016-05-27T09:25:14.288Z,20.96
2016-05-27T09:26:14.290Z,20.79
2016-05-27T09:27:14.340Z,20.81
2016-05-27T09:28:14.249Z,20.8
2016-05-27T09:29:14.220Z,20.8
2016-05-27T09:30:14.208Z,20.74
2016-05-27T09:31:14.194Z,20.77
2016-05-27T09:32:14.181Z,20.77
2016-05-27T09:33:14.169Z,20.77
2016-05-27T09:34:16.143Z,20.76
2016-05-27T09:35:14.549Z,20.87
2016-05-27T09:36:14.114Z,20.93
2016-05-27T09:37:13.945Z,20.95
2016-05-27T09:38:14.088Z,20.95
2016-05-27T09:39:14.075Z,21.14
2016-05-27T09:40:14.047Z,21.24
2016-05-27T09:41:14.362Z,21.24
2016-05-27T09:42:14.005Z,21.2
2016-05-27T09:43:13.836Z,21.35
2016-05-27T09:44:13.979Z,21.35
2016-05-27T09:45:13.966Z,21.42
2016-05-27T09:46:13.954Z,21.57
2016-05-27T09:47:13.768Z,21.46
2016-05-27T09:48:13.771Z,21.57
2016-05-27T09:49:15.776Z,21.54
2016-05-27T09:50:13.901Z,21.61
2016-05-27T09:51:13.873Z,21.56
2016-05-27T09:52:13.860Z,21.57
2016-05-27T09:53:13.831Z,21.75
2016-05-27T09:54:13.662Z,21.76
2016-05-27T09:55:13.806Z,21.82
2016-05-27T09:56:13.621Z,21.82
2016-05-27T09:57:13.764Z,21.79
2016-05-27T09:58:13.751Z,21.83
2016-05-27T09:59:13.738Z,21.79
2016-05-27T10:00:13.726Z,21.78
2016-05-27T10:01:13.697Z,21.82
2016-05-27T10:02:13.700Z,21.78
2016-05-27T10:03:13.671Z,21.78
2016-05-27T10:04:13.674Z,21.85
2016-05-27T10:05:13.879Z,21.85
2016-05-27T10:06:13.633Z,21.95
2016-05-27T10:07:13.620Z,21.92
2016-05-27T10:08:13.607Z,21.9
2016-05-27T10:09:13.577Z,21.9
2016-05-27T10:10:13.565Z,21.9
2016-05-27T10:11:13.551Z,22.02
2016-05-27T10:12:13.538Z,22.06
2016-05-27T10:13:13.355Z,22.04
2016-05-27T10:14:13.498Z,22.04
2016-05-27T10:15:13.485Z,22.02
2016-05-27T10:16:13.471Z,22.04
2016-05-27T10:17:13.459Z,21.85
2016-05-27T10:18:13.446Z,21.92
2016-05-27T10:19:13.996Z,21.97
2016-05-27T10:20:13.435Z,21.92
2016-05-27T10:21:13.392Z,21.88
2016-05-27T10:22:13.222Z,22.04
2016-05-27T10:23:13.381Z,22.04
2016-05-27T10:24:13.353Z,22.02
2016-05-27T10:25:13.340Z,22.09
2016-05-27T10:26:13.436Z,22.09
2016-05-27T10:27:13.298Z,21.98
2016-05-27T10:28:15.145Z,22.04
2016-05-27T10:29:13.256Z,22.07
2016-05-27T10:30:13.259Z,22.1
2016-05-27T10:31:13.247Z,22.27
2016-05-27T10:32:13.092Z,22.41
2016-05-27T10:33:13.220Z,22.34
2016-05-27T10:34:14.239Z,22.5
2016-05-27T10:35:13.554Z,22.59
2016-05-27T10:36:13.166Z,22.71
2016-05-27T10:37:13.153Z,22.84
2016-05-27T10:38:13.140Z,22.84
2016-05-27T10:39:13.112Z,22.99
2016-05-27T10:40:13.114Z,22.99
2016-05-27T10:41:13.085Z,23.05
2016-05-27T10:42:15.089Z,22.96
2016-05-27T10:43:13.076Z,22.97
2016-05-27T10:44:13.063Z,22.86
2016-05-27T10:45:13.207Z,22.72
2016-05-27T10:46:13.021Z,22.78
2016-05-27T10:47:13.008Z,22.74
2016-05-27T10:48:12.995Z,22.75
2016-05-27T10:49:12.982Z,22.8
2016-05-27T10:50:12.828Z,22.78
2016-05-27T10:51:12.784Z,22.8
2016-05-27T10:52:12.944Z,22.71
2016-05-27T10:53:12.915Z,22.65
2016-05-27T10:54:12.745Z,22.54
2016-05-27T10:55:12.733Z,22.71
2016-05-27T10:56:12.861Z,22.77
2016-05-27T10:57:12.889Z,22.8
2016-05-27T10:58:12.886Z,22.9
2016-05-27T10:59:13.383Z,22.8
2016-05-27T11:00:12.911Z,22.9
2016-05-27T11:01:12.924Z,22.89
2016-05-27T11:02:12.905Z,22.87
2016-05-27T11:03:12.761Z,22.84
2016-05-27T11:04:12.914Z,22.89
2016-05-27T11:05:13.409Z,22.89
2016-05-27T11:06:13.469Z,22.84
2016-05-27T11:07:12.881Z,22.77
2016-05-27T11:08:12.887Z,22.67
2016-05-27T11:09:12.846Z,22.68
2016-05-27T11:10:12.837Z,22.71
2016-05-27T11:11:13.359Z,22.8
2016-05-27T11:12:12.847Z,22.92
2016-05-27T11:13:12.647Z,22.94
2016-05-27T11:14:12.791Z,23.04
2016-05-27T11:15:12.780Z,22.99
2016-05-27T11:16:12.769Z,22.92
2016-05-27T11:17:12.756Z,23.01
2016-05-27T11:18:12.744Z,23.07
2016-05-27T11:19:13.433Z,23.09
2016-05-27T11:20:12.562Z,23.14
2016-05-27T11:21:12.690Z,23.07
2016-05-27T11:22:12.521Z,23.01
2016-05-27T11:23:12.665Z,23.19
2016-05-27T11:24:12.668Z,23.2
2016-05-27T11:25:12.640Z,23.11
2016-05-27T11:26:12.628Z,23.12
2016-05-27T11:27:12.599Z,23.14
2016-05-27T11:28:12.445Z,23.22
2016-05-27T11:29:12.588Z,23.04
2016-05-27T11:30:12.560Z,23.19
2016-05-27T11:31:12.390Z,23.04
2016-05-27T11:32:12.534Z,23.12
2016-05-27T11:33:12.521Z,22.99
2016-05-27T11:34:12.867Z,23.05
2016-05-27T11:35:12.511Z,23.07
2016-05-27T11:36:12.482Z,23.09
2016-05-27T11:37:12.312Z,23.07
2016-05-27T11:38:12.472Z,23.04
2016-05-27T11:39:12.459Z,23.11
2016-05-27T11:40:12.431Z,23.17
2016-05-27T11:41:12.402Z,23.07
2016-05-27T11:42:12.389Z,23.05
2016-05-27T11:43:12.407Z,22.83
2016-05-27T11:44:12.363Z,22.89
2016-05-27T11:45:12.350Z,22.8
2016-05-27T11:46:12.337Z,22.77
2016-05-27T11:47:12.325Z,22.82
2016-05-27T11:48:12.295Z,22.8
2016-05-27T11:49:12.798Z,22.77
2016-05-27T11:50:12.301Z,22.72
2016-05-27T11:51:16.647Z,22.68
2016-05-27T11:52:12.245Z,22.67
2016-05-27T11:53:12.231Z,22.64
2016-05-27T11:54:12.233Z,22.54
2016-05-27T11:55:12.189Z,22.44
2016-05-27T11:56:12.177Z,22.37
2016-05-27T11:57:12.194Z,22.32
2016-05-27T11:58:12.166Z,22.23
2016-05-27T11:59:12.153Z,22.19
2016-05-27T12:00:12.124Z,22.16
2016-05-27T12:01:12.113Z,22.1
2016-05-27T12:02:12.099Z,22.02
2016-05-27T12:03:12.086Z,22.04
2016-05-27T12:04:11.916Z,21.83
2016-05-27T12:05:12.076Z,21.9
2016-05-27T12:06:11.876Z,21.81
2016-05-27T12:07:12.019Z,21.82
2016-05-27T12:08:12.006Z,21.76
2016-05-27T12:09:11.977Z,21.85
2016-05-27T12:10:11.964Z,21.79
2016-05-27T12:11:11.811Z,21.81
2016-05-27T12:12:11.938Z,21.78
2016-05-27T12:13:11.926Z,21.63
2016-05-27T12:14:11.912Z,21.59
2016-05-27T12:15:11.915Z,21.57
2016-05-27T12:16:16.059Z,21.46
2016-05-27T12:17:11.873Z,21.36
2016-05-27T12:18:11.861Z,21.48
2016-05-27T12:19:11.910Z,21.41
2016-05-27T12:20:11.679Z,21.35
2016-05-27T12:21:11.791Z,21.3
2016-05-27T12:22:11.621Z,21.39
2016-05-27T12:23:11.765Z,21.36
2016-05-27T12:24:11.595Z,21.19
2016-05-27T12:25:11.739Z,21.23
2016-05-27T12:26:11.586Z,21.29
2016-05-27T12:27:11.541Z,21.29
2016-05-27T12:28:11.669Z,21.29
2016-05-27T12:29:11.671Z,21.36
2016-05-27T12:30:11.643Z,21.34
2016-05-27T12:31:11.474Z,21.38
2016-05-27T12:32:11.632Z,21.13
2016-05-27T12:33:11.604Z,21.04
2016-05-27T12:34:11.701Z,21.23
2016-05-27T12:35:11.704Z,21.2
2016-05-27T12:36:11.550Z,21.24
2016-05-27T12:37:11.537Z,21.2
2016-05-27T12:38:11.540Z,21.2
2016-05-27T12:39:11.511Z,21.24
2016-05-27T12:40:11.482Z,21.21
2016-05-27T12:41:11.470Z,21.26
2016-05-27T12:42:11.457Z,21.17
2016-05-27T12:43:11.287Z,21.27
2016-05-27T12:44:11.415Z,21.19
2016-05-27T12:45:11.417Z,21.05
2016-05-27T12:46:11.233Z,20.96
2016-05-27T12:47:11.376Z,20.95
2016-05-27T12:48:11.348Z,21.05
2016-05-27T12:49:12.023Z,20.95
2016-05-27T12:50:11.462Z,20.95
2016-05-27T12:51:11.340Z,21.04
2016-05-27T12:52:11.328Z,20.99
2016-05-27T12:53:11.267Z,20.93
2016-05-27T12:54:11.255Z,20.99
2016-05-27T12:55:11.241Z,20.99